Time;durP1;ratioP1;P1;durP2;ratioP2;P2;SDS_P1;SDS_P2;PMS_P1;PMS_P2;Temp;Humidity;BMP_temperature;BMP_pressure;BME280_temperature;BME280_humidity;BME280_pressure;Samples;Min_cycle;Max_cycle;Signal;HPM_P1;HPM_P2
2023/03/29 00:00:39;;;;;;;;;;;12.80;99.90;;;;;;6120492;23;19913;-91
2023/03/29 00:03:07;;;;;;;;;;;12.90;99.90;;;;;;6120058;23;19890;-90
2023/03/29 00:05:34;;;;;;;;;;;12.80;99.90;;;;;;6120869;23;19949;-88
2023/03/29 00:08:17;;;;;;;;;;;12.80;99.90;;;;;;6120482;23;19937;-89
2023/03/29 00:10:45;;;;;;;;;;;12.90;99.90;;;;;;6121022;23;19909;-91
2023/03/29 00:13:37;;;;;;;;;;;12.90;99.90;;;;;;6121160;23;19937;-90
2023/03/29 00:16:03;;;;;;;;;;;13.30;99.90;;;;;;6096124;23;19897;-91
2023/03/29 00:18:30;;;;;;;;;;;12.90;99.90;;;;;;6147656;23;19929;-90
2023/03/29 00:21:25;;;;;;;;;;;12.90;99.90;;;;;;6149481;23;19904;-90
2023/03/29 00:24:11;;;;;;;;;;;13.00;99.90;;;;;;6102818;23;20216;-91
2023/03/29 00:26:42;;;;;;;;;;;12.90;99.90;;;;;;6095653;23;19889;-90
2023/03/29 00:29:11;;;;;;;;;;;12.90;99.90;;;;;;6120614;23;19975;-89
2023/03/29 00:31:39;;;;;;;;;;;12.90;99.90;;;;;;6116588;23;19913;-90
2023/03/29 00:34:13;;;;;;;;;;;12.90;99.90;;;;;;6095188;23;19920;-90
2023/03/29 00:36:40;;;;;;;;;;;12.90;99.90;;;;;;6097948;23;19913;-90
2023/03/29 00:39:07;;;;;;;;;;;12.90;99.90;;;;;;6121140;23;20290;-91
2023/03/29 00:41:36;;;;;;;;;;;12.90;99.90;;;;;;6120856;23;19909;-90
2023/03/29 00:44:03;;;;;;;;;;;12.90;99.90;;;;;;6119931;23;19929;-90
2023/03/29 00:46:37;;;;;;;;;;;12.90;99.90;;;;;;6154902;23;19928;-90
2023/03/29 00:49:11;;;;;;;;;;;12.90;99.90;;;;;;6208909;23;19916;-91
2023/03/29 00:51:56;;;;;;;;;;;12.90;99.90;;;;;;6210891;23;19888;-91
2023/03/29 00:54:43;;;;;;;;;;;12.90;99.90;;;;;;6219526;23;19919;-90
2023/03/29 00:57:13;;;;;;;;;;;12.90;99.90;;;;;;6184417;23;19912;-91
2023/03/29 01:00:00;;;;;;;;;;;12.90;99.90;;;;;;6209084;23;19920;-90
2023/03/29 01:02:52;;;;;;;;;;;12.80;99.90;;;;;;6210092;23;19904;-91
2023/03/29 01:05:38;;;;;;;;;;;12.90;99.90;;;;;;6208323;23;19912;-90
2023/03/29 01:08:42;;;;;;;;;;;12.90;99.90;;;;;;6206699;23;19908;-89
2023/03/29 01:11:10;;;;;;;;;;;12.80;99.90;;;;;;6208508;23;20227;-90
2023/03/29 01:13:56;;;;;;;;;;;12.80;99.90;;;;;;6184774;23;19911;-90
2023/03/29 01:16:23;;;;;;;;;;;12.80;99.90;;;;;;6208266;23;19948;-90
2023/03/29 01:18:59;;;;;;;;;;;12.80;99.90;;;;;;6207905;23;19911;-90
2023/03/29 01:21:52;;;;;;;;;;;13.20;99.90;;;;;;6207020;23;19904;-90
2023/03/29 01:24:36;;;;;;;;;;;12.80;99.90;;;;;;6208563;23;19919;-90
2023/03/29 01:27:11;;;;;;;;;;;13.20;99.90;;;;;;6208215;23;19905;-89
2023/03/29 01:29:47;;;;;;;;;;;12.80;99.90;;;;;;6206941;23;19905;-90
2023/03/29 01:32:36;;;;;;;;;;;12.80;99.90;;;;;;6205644;23;20296;-91
2023/03/29 01:35:01;;;;;;;;;;;12.80;99.90;;;;;;6206283;23;19920;-90
2023/03/29 01:37:31;;;;;;;;;;;12.80;99.90;;;;;;6205707;23;19935;-90
2023/03/29 01:40:18;;;;;;;;;;;12.80;99.90;;;;;;6208211;23;19908;-91
2023/03/29 01:43:11;;;;;;;;;;;12.70;99.90;;;;;;6207854;23;19893;-91
2023/03/29 01:46:17;;;;;;;;;;;12.80;99.90;;;;;;6183005;23;19911;-91
2023/03/29 01:49:09;;;;;;;;;;;12.80;99.90;;;;;;6236594;23;19908;-91
2023/03/29 01:51:57;;;;;;;;;;;12.80;99.90;;;;;;6235815;23;19911;-91
2023/03/29 01:54:54;;;;;;;;;;;12.80;99.90;;;;;;6236746;23;19915;-91
2023/03/29 01:58:11;;;;;;;;;;;12.80;99.90;;;;;;6232577;23;19892;-90
2023/03/29 02:00:40;;;;;;;;;;;13.20;99.90;;;;;;6210955;23;19911;-91
2023/03/29 02:03:07;;;;;;;;;;;13.20;99.90;;;;;;6211034;23;19911;-91
2023/03/29 02:05:48;;;;;;;;;;;12.80;99.90;;;;;;6237198;23;19907;-90
2023/03/29 02:08:16;;;;;;;;;;;13.30;99.90;;;;;;6235170;23;19904;-91
2023/03/29 02:10:42;;;;;;;;;;;12.80;99.90;;;;;;6238817;23;19904;-90
2023/03/29 02:13:19;;;;;;;;;;;12.80;99.90;;;;;;6237648;23;19912;-90
2023/03/29 02:16:04;;;;;;;;;;;12.70;99.90;;;;;;6238414;23;19912;-91
2023/03/29 02:18:42;;;;;;;;;;;12.70;99.90;;;;;;6236244;23;19892;-91
2023/03/29 02:21:32;;;;;;;;;;;12.80;99.90;;;;;;6237551;23;19904;-90
2023/03/29 02:23:59;;;;;;;;;;;13.20;99.90;;;;;;6262896;23;19904;-91
2023/03/29 02:26:40;;;;;;;;;;;12.70;99.90;;;;;;6237666;23;19947;-90
2023/03/29 02:29:14;;;;;;;;;;;12.70;99.90;;;;;;6239080;23;19928;-89
2023/03/29 02:31:59;;;;;;;;;;;12.70;99.90;;;;;;6241401;23;19911;-90
2023/03/29 02:34:28;;;;;;;;;;;12.70;99.90;;;;;;6241315;23;19892;-91
2023/03/29 02:37:14;;;;;;;;;;;12.70;99.90;;;;;;6240753;23;19916;-90
2023/03/29 02:39:49;;;;;;;;;;;12.70;99.90;;;;;;6241686;23;19910;-91
2023/03/29 02:42:37;;;;;;;;;;;12.70;99.90;;;;;;6240054;23;19946;-90
2023/03/29 02:45:16;;;;;;;;;;;12.70;99.90;;;;;;6235881;23;19914;-91
2023/03/29 02:47:48;;;;;;;;;;;14.10;99.90;;;;;;6264235;23;19904;-91
2023/03/29 02:50:18;;;;;;;;;;;12.80;99.90;;;;;;6240770;23;19904;-91
2023/03/29 02:53:04;;;;;;;;;;;12.70;99.90;;;;;;6240489;23;19903;-90
2023/03/29 02:56:01;;;;;;;;;;;12.70;99.90;;;;;;6239247;23;19912;-91
2023/03/29 02:58:30;;;;;;;;;;;12.80;99.90;;;;;;6237410;23;19904;-91
2023/03/29 03:00:58;;;;;;;;;;;12.70;99.90;;;;;;6213152;23;19932;-90
2023/03/29 03:03:30;;;;;;;;;;;12.80;99.90;;;;;;6236237;23;20346;-90
2023/03/29 03:05:57;;;;;;;;;;;12.80;99.90;;;;;;6236434;23;19911;-91
2023/03/29 03:08:22;;;;;;;;;;;12.70;99.90;;;;;;6236965;23;19888;-91
2023/03/29 03:10:51;;;;;;;;;;;12.60;99.90;;;;;;6236846;23;19951;-89
2023/03/29 03:13:41;;;;;;;;;;;12.80;99.90;;;;;;6237901;23;19948;-91
2023/03/29 03:16:07;;;;;;;;;;;12.80;99.90;;;;;;6151980;23;19946;-89
2023/03/29 03:18:53;;;;;;;;;;;12.80;99.90;;;;;;6146155;23;19904;-90
2023/03/29 03:21:36;;;;;;;;;;;13.10;99.90;;;;;;6162485;23;19985;-92
2023/03/29 03:24:02;;;;;;;;;;;12.80;99.90;;;;;;6151816;23;19912;-93
2023/03/29 03:26:28;;;;;;;;;;;12.80;99.90;;;;;;6152277;23;19905;-91
2023/03/29 03:28:55;;;;;;;;;;;12.80;99.90;;;;;;6152814;23;20386;-93
2023/03/29 03:31:20;;;;;;;;;;;12.80;99.90;;;;;;6152926;23;19904;-94
2023/03/29 03:33:46;;;;;;;;;;;12.80;99.90;;;;;;6151274;23;19911;-94
2023/03/29 03:36:11;;;;;;;;;;;12.70;99.90;;;;;;6150821;23;19908;-93
2023/03/29 03:38:37;;;;;;;;;;;12.80;99.90;;;;;;6150688;23;19911;-91
2023/03/29 03:41:03;;;;;;;;;;;12.80;99.90;;;;;;6150853;23;19909;-89
2023/03/29 03:43:29;;;;;;;;;;;12.70;99.90;;;;;;6151580;23;19920;-91
2023/03/29 03:45:55;;;;;;;;;;;12.70;99.90;;;;;;6152656;23;19904;-91
2023/03/29 03:48:21;;;;;;;;;;;12.70;99.90;;;;;;6151978;23;19911;-91
2023/03/29 03:50:48;;;;;;;;;;;12.70;99.90;;;;;;6151497;23;19916;-89
2023/03/29 03:53:14;;;;;;;;;;;12.70;99.90;;;;;;6149740;23;20004;-92
2023/03/29 03:55:43;;;;;;;;;;;12.70;99.90;;;;;;6157504;23;19968;-90
2023/03/29 03:58:08;;;;;;;;;;;12.80;99.90;;;;;;6165888;23;19924;-91
2023/03/29 04:00:34;;;;;;;;;;;12.80;99.90;;;;;;6163119;23;19905;-91
2023/03/29 04:03:01;;;;;;;;;;;12.80;99.90;;;;;;6164264;23;19904;-91
2023/03/29 04:05:29;;;;;;;;;;;12.80;99.90;;;;;;6173426;23;19924;-90
2023/03/29 04:07:56;;;;;;;;;;;12.80;99.90;;;;;;6228459;23;19911;-91
2023/03/29 04:10:22;;;;;;;;;;;12.80;99.90;;;;;;6254803;23;19919;-92
2023/03/29 04:12:48;;;;;;;;;;;12.80;99.90;;;;;;6223626;23;19908;-92
2023/03/29 04:15:13;;;;;;;;;;;12.80;99.90;;;;;;6224939;23;19911;-92
2023/03/29 04:17:39;;;;;;;;;;;12.80;99.90;;;;;;6227136;23;19915;-93
2023/03/29 04:20:13;;;;;;;;;;;12.80;99.90;;;;;;6249247;23;19932;-91
2023/03/29 04:22:40;;;;;;;;;;;12.90;99.90;;;;;;6223907;23;19926;-91
2023/03/29 04:25:07;;;;;;;;;;;15.10;99.90;;;;;;6225224;23;20280;-91
2023/03/29 04:27:51;;;;;;;;;;;12.90;99.90;;;;;;6223094;23;19980;-91
2023/03/29 04:30:17;;;;;;;;;;;12.90;99.90;;;;;;6196532;23;20047;-91
2023/03/29 04:32:44;;;;;;;;;;;12.90;99.90;;;;;;6193246;23;19969;-92
2023/03/29 04:35:29;;;;;;;;;;;13.00;99.90;;;;;;6155189;23;19943;-92
2023/03/29 04:37:55;;;;;;;;;;;12.90;99.90;;;;;;6136563;23;19948;-92
2023/03/29 04:40:21;;;;;;;;;;;12.90;99.90;;;;;;6133129;23;20363;-92
2023/03/29 04:42:46;;;;;;;;;;;12.90;99.90;;;;;;6136200;23;19938;-91
2023/03/29 04:45:16;;;;;;;;;;;12.90;99.90;;;;;;6132813;23;20012;-92
2023/03/29 04:47:44;;;;;;;;;;;12.90;99.90;;;;;;6132165;23;20380;-92
2023/03/29 04:50:09;;;;;;;;;;;12.90;99.90;;;;;;6159376;23;20241;-91
2023/03/29 04:52:35;;;;;;;;;;;12.90;99.90;;;;;;6137085;23;19895;-90
2023/03/29 04:55:23;;;;;;;;;;;12.80;99.90;;;;;;6168550;23;19932;-92
2023/03/29 04:57:49;;;;;;;;;;;12.90;99.90;;;;;;6135724;23;20244;-91
2023/03/29 05:00:15;;;;;;;;;;;12.80;99.90;;;;;;6134174;23;19905;-92
2023/03/29 05:02:48;;;;;;;;;;;12.80;99.90;;;;;;6162698;23;19905;-92
2023/03/29 05:05:14;;;;;;;;;;;12.80;99.90;;;;;;6109859;23;20021;-92
2023/03/29 05:07:40;;;;;;;;;;;12.80;99.90;;;;;;6128728;23;19909;-95
2023/03/29 05:10:09;;;;;;;;;;;12.80;99.90;;;;;;6132309;23;19948;-90
2023/03/29 05:12:37;;;;;;;;;;;12.80;99.90;;;;;;6192332;23;19911;-91
2023/03/29 05:15:04;;;;;;;;;;;12.80;99.90;;;;;;6227484;23;19919;-90
2023/03/29 05:17:31;;;;;;;;;;;12.80;99.90;;;;;;6184665;23;19904;-91
2023/03/29 05:20:00;;;;;;;;;;;12.80;99.90;;;;;;6204970;23;19952;-92
2023/03/29 05:22:28;;;;;;;;;;;12.80;99.90;;;;;;6229757;23;19940;-91
2023/03/29 05:24:54;;;;;;;;;;;12.80;99.90;;;;;;6230415;23;19904;-91
2023/03/29 05:27:21;;;;;;;;;;;12.80;99.90;;;;;;6229231;23;19908;-93
2023/03/29 05:29:47;;;;;;;;;;;12.80;99.90;;;;;;6228929;23;19983;-90
2023/03/29 05:32:13;;;;;;;;;;;12.80;99.90;;;;;;6220870;23;19904;-89
2023/03/29 05:34:39;;;;;;;;;;;12.80;99.90;;;;;;6216256;23;19919;-91
2023/03/29 05:37:04;;;;;;;;;;;12.80;99.90;;;;;;6216461;23;19938;-89
2023/03/29 05:39:32;;;;;;;;;;;12.80;99.90;;;;;;6213673;23;20233;-90
2023/03/29 05:41:58;;;;;;;;;;;12.70;99.90;;;;;;6216548;23;19904;-91
2023/03/29 05:44:24;;;;;;;;;;;12.60;99.90;;;;;;6186530;23;19914;-91
2023/03/29 05:46:50;;;;;;;;;;;12.50;99.90;;;;;;6223400;23;19904;-90
2023/03/29 05:49:16;;;;;;;;;;;12.40;99.90;;;;;;6221019;23;19904;-91
2023/03/29 05:51:44;;;;;;;;;;;12.30;99.90;;;;;;6221872;23;19955;-90
2023/03/29 05:54:10;;;;;;;;;;;12.20;99.90;;;;;;6227248;23;19915;-90
2023/03/29 05:56:35;;;;;;;;;;;12.10;99.90;;;;;;6219297;23;19904;-90
2023/03/29 05:59:01;;;;;;;;;;;12.00;99.90;;;;;;6226736;23;19914;-90
2023/03/29 06:01:27;;;;;;;;;;;11.90;99.90;;;;;;6247521;23;19911;-91
2023/03/29 06:03:53;;;;;;;;;;;11.80;99.90;;;;;;6224906;23;19951;-90
2023/03/29 06:06:20;;;;;;;;;;;11.70;99.90;;;;;;6225746;23;19904;-90
2023/03/29 06:08:49;;;;;;;;;;;11.60;99.90;;;;;;6229817;23;19907;-91
2023/03/29 06:11:16;;;;;;;;;;;11.60;99.90;;;;;;6224087;23;19904;-89
2023/03/29 06:13:41;;;;;;;;;;;11.50;99.90;;;;;;6226304;23;19904;-89
2023/03/29 06:16:08;;;;;;;;;;;11.50;99.90;;;;;;6225934;23;19923;-89
2023/03/29 06:18:38;;;;;;;;;;;11.50;99.90;;;;;;6222585;23;19904;-91
2023/03/29 06:21:04;;;;;;;;;;;11.50;99.90;;;;;;6227425;23;19957;-91
2023/03/29 06:23:30;;;;;;;;;;;11.50;99.90;;;;;;6247427;23;20230;-91
2023/03/29 06:25:56;;;;;;;;;;;11.50;99.90;;;;;;6219405;23;19935;-92
2023/03/29 06:28:22;;;;;;;;;;;11.40;99.90;;;;;;6225966;23;19904;-92
2023/03/29 06:30:48;;;;;;;;;;;11.30;99.90;;;;;;6224977;23;19908;-92
2023/03/29 06:33:14;;;;;;;;;;;11.30;99.90;;;;;;6225910;23;19915;-92
2023/03/29 06:35:41;;;;;;;;;;;11.30;99.90;;;;;;6223512;23;19928;-91
2023/03/29 06:38:25;;;;;;;;;;;11.30;99.90;;;;;;6233537;23;19972;-93
2023/03/29 06:41:14;;;;;;;;;;;11.30;99.90;;;;;;6231295;23;19888;-92
2023/03/29 06:43:44;;;;;;;;;;;11.30;99.90;;;;;;6233369;23;19910;-92
2023/03/29 06:46:19;;;;;;;;;;;11.40;99.90;;;;;;6236808;23;19928;-93
2023/03/29 06:48:46;;;;;;;;;;;11.40;99.90;;;;;;6236022;23;19914;-92
2023/03/29 06:51:15;;;;;;;;;;;11.40;99.90;;;;;;6234834;23;19904;-92
2023/03/29 06:53:40;;;;;;;;;;;11.50;99.90;;;;;;6237150;23;19967;-92
2023/03/29 06:56:28;;;;;;;;;;;11.50;99.90;;;;;;6237098;23;20300;-92
2023/03/29 06:58:58;;;;;;;;;;;11.50;99.90;;;;;;6238105;23;19903;-93
2023/03/29 07:01:33;;;;;;;;;;;11.60;99.90;;;;;;6236135;23;19904;-89
2023/03/29 07:04:03;;;;;;;;;;;14.80;99.90;;;;;;6226946;23;19904;-93
2023/03/29 07:06:29;;;;;;;;;;;11.80;99.90;;;;;;6214976;23;19918;-92
2023/03/29 07:08:58;;;;;;;;;;;11.90;99.90;;;;;;6211521;23;19916;-93
2023/03/29 07:11:24;;;;;;;;;;;12.00;99.90;;;;;;6241689;23;19904;-92
2023/03/29 07:13:49;;;;;;;;;;;12.00;99.90;;;;;;6240268;23;19904;-91
2023/03/29 07:16:20;;;;;;;;;;;12.00;99.90;;;;;;6220109;23;21340;-92
2023/03/29 07:18:47;;;;;;;;;;;12.00;99.90;;;;;;6219649;23;19974;-91
2023/03/29 07:21:13;;;;;;;;;;;12.00;99.90;;;;;;6225973;23;19904;-91
2023/03/29 07:23:39;;;;;;;;;;;12.10;99.90;;;;;;6224177;23;19903;-92
2023/03/29 07:26:06;;;;;;;;;;;12.00;99.90;;;;;;6225379;23;19958;-91
2023/03/29 07:28:38;;;;;;;;;;;12.10;99.90;;;;;;6228210;23;19988;-91
2023/03/29 07:31:06;;;;;;;;;;;12.20;99.90;;;;;;6226667;23;19904;-94
2023/03/29 07:33:54;;;;;;;;;;;12.20;99.90;;;;;;6230799;23;19904;-91
2023/03/29 07:36:23;;;;;;;;;;;12.20;99.90;;;;;;6172532;23;19918;-91
2023/03/29 07:38:49;;;;;;;;;;;12.30;99.90;;;;;;6206155;23;19944;-92
2023/03/29 07:41:39;;;;;;;;;;;12.30;99.90;;;;;;6210104;23;19948;-91
2023/03/29 07:44:22;;;;;;;;;;;12.30;99.90;;;;;;6206058;23;19907;-91
2023/03/29 07:47:11;;;;;;;;;;;12.40;99.90;;;;;;6200395;23;19964;-91
2023/03/29 07:49:43;;;;;;;;;;;12.40;99.90;;;;;;6181023;23;19894;-92
2023/03/29 07:52:17;;;;;;;;;;;12.40;99.90;;;;;;6203883;23;19932;-93
2023/03/29 07:54:54;;;;;;;;;;;12.40;99.90;;;;;;6203453;23;19912;-91
2023/03/29 07:57:21;;;;;;;;;;;12.40;99.90;;;;;;6180885;23;19889;-95
2023/03/29 07:59:50;;;;;;;;;;;12.50;99.90;;;;;;6175244;23;19889;-93
2023/03/29 08:02:18;;;;;;;;;;;12.50;99.90;;;;;;6201074;23;19904;-91
2023/03/29 08:04:44;;;;;;;;;;;12.50;99.90;;;;;;6204247;23;19892;-92
2023/03/29 08:07:26;;;;;;;;;;;12.50;99.90;;;;;;6202390;23;19944;-93
2023/03/29 08:09:51;;;;;;;;;;;12.50;99.90;;;;;;6169938;23;20243;-93
2023/03/29 08:12:17;;;;;;;;;;;12.50;99.90;;;;;;6168994;23;19943;-92
2023/03/29 08:14:43;;;;;;;;;;;12.60;99.90;;;;;;6199317;23;20014;-92
2023/03/29 08:17:08;;;;;;;;;;;12.60;99.90;;;;;;6221848;23;19957;-92
2023/03/29 08:19:34;;;;;;;;;;;12.60;99.90;;;;;;6223767;23;19996;-92
2023/03/29 08:22:00;;;;;;;;;;;12.60;99.90;;;;;;6223363;23;19904;-92
2023/03/29 08:24:26;;;;;;;;;;;12.60;99.90;;;;;;6220769;23;19910;-92
2023/03/29 08:26:52;;;;;;;;;;;12.60;99.90;;;;;;6220717;23;19904;-92
2023/03/29 08:29:17;;;;;;;;;;;12.70;99.90;;;;;;6221874;23;19933;-93
2023/03/29 08:31:43;;;;;;;;;;;12.70;99.90;;;;;;6216245;23;19904;-92
2023/03/29 08:34:09;;;;;;;;;;;12.70;99.90;;;;;;6220452;23;20244;-91
2023/03/29 08:36:34;;;;;;;;;;;12.80;99.90;;;;;;6219721;23;19904;-92
2023/03/29 08:39:02;;;;;;;;;;;12.80;99.90;;;;;;6219692;23;20038;-92
2023/03/29 08:41:40;;;;;;;;;;;12.80;99.90;;;;;;6218224;23;19904;-94
2023/03/29 08:44:26;;;;;;;;;;;13.00;99.90;;;;;;6244981;23;19951;-93
2023/03/29 08:47:00;;;;;;;;;;;13.00;99.90;;;;;;6246140;23;19911;-93
2023/03/29 08:49:27;;;;;;;;;;;13.00;99.90;;;;;;6243670;23;19942;-93
2023/03/29 08:51:58;;;;;;;;;;;13.00;99.90;;;;;;6217260;23;19911;-93
2023/03/29 08:54:27;;;;;;;;;;;13.10;99.90;;;;;;6243271;23;20333;-93
2023/03/29 08:56:56;;;;;;;;;;;13.20;99.90;;;;;;6218819;23;19927;-91
2023/03/29 08:59:27;;;;;;;;;;;13.20;99.90;;;;;;6216822;23;20253;-93
2023/03/29 09:01:54;;;;;;;;;;;13.30;99.90;;;;;;6212386;23;19912;-92
2023/03/29 09:04:25;;;;;;;;;;;13.30;99.90;;;;;;6221128;23;19903;-92
2023/03/29 09:06:51;;;;;;;;;;;13.30;99.90;;;;;;6221074;23;19903;-93
2023/03/29 09:09:19;;;;;;;;;;;13.40;99.90;;;;;;6221439;23;19934;-93
2023/03/29 09:11:51;;;;;;;;;;;13.40;99.90;;;;;;6220342;23;20363;-93
2023/03/29 09:14:29;;;;;;;;;;;13.50;99.90;;;;;;6223235;23;20347;-90
2023/03/29 09:16:55;;;;;;;;;;;13.60;99.90;;;;;;6223194;23;19911;-93
2023/03/29 09:19:28;;;;;;;;;;;13.60;99.90;;;;;;6221487;23;20394;-92
2023/03/29 09:22:17;;;;;;;;;;;13.70;99.90;;;;;;6218471;23;19974;-92
2023/03/29 09:25:03;;;;;;;;;;;13.80;99.90;;;;;;6209676;23;20329;-92
2023/03/29 09:27:51;;;;;;;;;;;13.90;99.90;;;;;;6217504;23;19948;-92
2023/03/29 09:30:48;;;;;;;;;;;14.00;99.90;;;;;;6239076;23;19911;-92
2023/03/29 09:33:46;;;;;;;;;;;14.20;99.90;;;;;;6211828;23;19911;-93
2023/03/29 09:36:33;;;;;;;;;;;14.30;99.90;;;;;;6184356;23;19958;-93
2023/03/29 09:39:01;;;;;;;;;;;14.60;99.90;;;;;;6218173;23;20240;-93
2023/03/29 09:41:29;;;;;;;;;;;14.40;99.90;;;;;;6219102;23;19939;-94
2023/03/29 09:43:56;;;;;;;;;;;14.40;99.90;;;;;;6220479;23;19908;-93
2023/03/29 09:46:42;;;;;;;;;;;14.40;99.90;;;;;;6217098;23;19935;-92
2023/03/29 09:49:19;;;;;;;;;;;14.50;99.90;;;;;;6218482;23;20280;-93
2023/03/29 09:51:46;;;;;;;;;;;14.60;99.90;;;;;;6218119;23;20083;-93
2023/03/29 09:54:13;;;;;;;;;;;14.60;99.90;;;;;;6221536;23;19935;-94
2023/03/29 09:56:39;;;;;;;;;;;14.60;99.90;;;;;;6223539;23;19904;-95
2023/03/29 09:59:06;;;;;;;;;;;14.70;99.90;;;;;;6218610;23;19915;-95
2023/03/29 10:01:40;;;;;;;;;;;14.60;99.90;;;;;;6222534;23;19904;-93
2023/03/29 10:04:09;;;;;;;;;;;15.10;99.90;;;;;;6223082;23;19903;-92
2023/03/29 10:06:36;;;;;;;;;;;14.70;99.90;;;;;;6222362;23;19927;-93
2023/03/29 10:09:03;;;;;;;;;;;14.70;99.90;;;;;;6218932;23;19952;-93
2023/03/29 10:11:30;;;;;;;;;;;14.80;99.90;;;;;;6219988;23;19903;-92
2023/03/29 10:14:03;;;;;;;;;;;14.70;99.90;;;;;;6220429;23;19910;-92
2023/03/29 10:16:34;;;;;;;;;;;14.80;99.90;;;;;;6217958;23;20268;-93
2023/03/29 10:19:19;;;;;;;;;;;14.90;99.90;;;;;;6218748;23;19911;-94
2023/03/29 10:21:47;;;;;;;;;;;15.00;99.90;;;;;;6220417;23;19904;-96
2023/03/29 10:24:17;;;;;;;;;;;15.10;99.90;;;;;;6222927;23;20333;-95
2023/03/29 10:26:42;;;;;;;;;;;15.20;99.90;;;;;;6223136;23;19974;-92
2023/03/29 10:29:12;;;;;;;;;;;15.20;99.90;;;;;;6196170;23;19915;-93
2023/03/29 10:31:41;;;;;;;;;;;15.30;99.90;;;;;;6224826;23;19904;-92
2023/03/29 10:34:11;;;;;;;;;;;15.30;99.90;;;;;;6220018;23;19904;-92
2023/03/29 10:36:40;;;;;;;;;;;15.30;99.90;;;;;;6218713;23;19936;-91
2023/03/29 10:39:06;;;;;;;;;;;15.40;99.90;;;;;;6217620;23;19912;-89
2023/03/29 10:41:33;;;;;;;;;;;15.50;99.90;;;;;;6218947;23;19911;-94
2023/03/29 10:44:01;;;;;;;;;;;15.50;99.90;;;;;;6217279;23;19904;-91
2023/03/29 10:46:41;;;;;;;;;;;15.60;99.90;;;;;;6241175;23;19904;-90
2023/03/29 10:49:20;;;;;;;;;;;16.50;99.90;;;;;;6218988;23;19936;-90
2023/03/29 10:52:12;;;;;;;;;;;15.80;99.90;;;;;;6221349;23;19907;-89
2023/03/29 10:54:37;;;;;;;;;;;15.70;99.90;;;;;;6194928;23;19919;-89
2023/03/29 10:57:05;;;;;;;;;;;15.80;99.90;;;;;;6185768;23;19904;-89
2023/03/29 10:59:51;;;;;;;;;;;15.90;99.90;;;;;;6156321;23;19904;-89
2023/03/29 11:02:25;;;;;;;;;;;16.10;99.90;;;;;;6151682;23;19904;-90
2023/03/29 11:05:01;;;;;;;;;;;16.20;99.90;;;;;;6187784;23;20395;-93
2023/03/29 11:07:27;;;;;;;;;;;16.20;99.90;;;;;;6162316;23;19910;-90
2023/03/29 11:09:58;;;;;;;;;;;16.30;99.90;;;;;;6169214;23;19944;-90
2023/03/29 11:12:33;;;;;;;;;;;17.00;99.90;;;;;;6189578;23;19987;-89
2023/03/29 11:15:17;;;;;;;;;;;16.60;99.90;;;;;;6181379;23;19995;-90
2023/03/29 11:17:50;;;;;;;;;;;16.80;99.90;;;;;;6157380;23;19980;-89
2023/03/29 11:20:24;;;;;;;;;;;16.90;99.90;;;;;;6157035;23;19916;-92
2023/03/29 11:22:53;;;;;;;;;;;17.00;99.90;;;;;;6157517;23;19911;-90
2023/03/29 11:25:19;;;;;;;;;;;17.00;99.90;;;;;;6160166;23;19904;-90
2023/03/29 11:27:49;;;;;;;;;;;17.10;99.90;;;;;;6186404;23;19927;-91
2023/03/29 11:30:25;;;;;;;;;;;17.20;99.90;;;;;;6186180;23;19911;-92
2023/03/29 11:32:58;;;;;;;;;;;17.30;99.90;;;;;;6184946;23;20371;-92
2023/03/29 11:35:42;;;;;;;;;;;17.70;99.90;;;;;;6159671;23;20345;-89
2023/03/29 11:38:32;;;;;;;;;;;17.40;99.90;;;;;;6159347;23;20040;-91
2023/03/29 11:41:01;;;;;;;;;;;17.50;99.90;;;;;;6182817;23;19927;-91
2023/03/29 11:43:30;;;;;;;;;;;17.50;99.90;;;;;;6183412;23;19905;-91
2023/03/29 11:46:01;;;;;;;;;;;17.60;99.90;;;;;;6155680;23;19983;-93
2023/03/29 11:48:33;;;;;;;;;;;17.70;99.90;;;;;;6157963;23;19995;-91
2023/03/29 11:51:10;;;;;;;;;;;17.90;99.90;;;;;;6172273;23;19916;-91
2023/03/29 11:53:40;;;;;;;;;;;17.90;99.90;;;;;;6212464;23;19989;-91
2023/03/29 11:56:12;;;;;;;;;;;18.00;99.90;;;;;;6214272;23;19922;-91
2023/03/29 11:58:40;;;;;;;;;;;18.50;99.90;;;;;;6242545;23;19904;-91
2023/03/29 12:01:13;;;;;;;;;;;18.20;99.90;;;;;;6218687;23;19915;-92
2023/03/29 12:03:44;;;;;;;;;;;18.40;99.90;;;;;;6215282;23;19976;-92
2023/03/29 12:06:19;;;;;;;;;;;18.40;99.90;;;;;;6217829;23;19915;-91
2023/03/29 12:08:44;;;;;;;;;;;18.50;99.90;;;;;;6215365;23;19912;-93
2023/03/29 12:11:17;;;;;;;;;;;18.50;99.90;;;;;;6239217;23;19936;-92
2023/03/29 12:13:46;;;;;;;;;;;18.60;99.90;;;;;;6216324;23;19931;-92
2023/03/29 12:16:26;;;;;;;;;;;18.70;99.90;;;;;;6215032;23;19912;-96
2023/03/29 12:18:56;;;;;;;;;;;18.70;99.90;;;;;;6216175;23;19955;-91
2023/03/29 12:21:23;;;;;;;;;;;18.70;99.90;;;;;;6215575;23;19904;-91
2023/03/29 12:23:51;;;;;;;;;;;18.80;99.90;;;;;;6220374;23;19958;-90
2023/03/29 12:26:46;;;;;;;;;;;18.80;99.90;;;;;;6219677;23;20355;-90
2023/03/29 12:29:25;;;;;;;;;;;19.00;99.90;;;;;;6188851;23;19905;-90
2023/03/29 12:31:57;;;;;;;;;;;19.00;99.90;;;;;;6216713;23;19927;-90
2023/03/29 12:34:45;;;;;;;;;;;19.10;99.90;;;;;;6248523;23;20329;-91
2023/03/29 12:37:41;;;;;;;;;;;19.30;99.90;;;;;;6220579;23;20313;-90
2023/03/29 12:40:13;;;;;;;;;;;19.50;99.90;;;;;;6205020;23;19962;-90
2023/03/29 12:42:45;;;;;;;;;;;19.50;99.90;;;;;;6216045;23;19940;-91
2023/03/29 12:45:30;;;;;;;;;;;19.50;99.90;;;;;;6242801;23;19931;-92
2023/03/29 12:47:56;;;;;;;;;;;19.40;99.90;;;;;;6209578;23;19912;-90
2023/03/29 12:50:44;;;;;;;;;;;19.30;99.90;;;;;;6213214;23;19927;-90
2023/03/29 12:53:32;;;;;;;;;;;19.40;99.90;;;;;;6213599;23;19987;-90
2023/03/29 12:56:12;;;;;;;;;;;19.40;99.90;;;;;;6241753;23;20408;-90
2023/03/29 12:58:38;;;;;;;;;;;19.40;99.90;;;;;;6215408;23;19931;-92
2023/03/29 13:01:05;;;;;;;;;;;19.40;99.90;;;;;;6216785;23;19904;-91
2023/03/29 13:03:33;;;;;;;;;;;19.40;99.90;;;;;;6239312;23;20221;-92
2023/03/29 13:06:20;;;;;;;;;;;19.40;99.90;;;;;;6219019;23;19911;-91
2023/03/29 13:08:55;;;;;;;;;;;19.30;99.90;;;;;;6240121;23;19914;-92
2023/03/29 13:11:32;;;;;;;;;;;19.20;99.90;;;;;;6221069;23;19911;-93
2023/03/29 13:14:00;;;;;;;;;;;19.30;99.90;;;;;;6220090;23;19904;-91
2023/03/29 13:16:32;;;;;;;;;;;19.30;99.90;;;;;;6217090;23;19911;-93
2023/03/29 13:18:57;;;;;;;;;;;20.70;99.90;;;;;;6245859;23;19904;-91
2023/03/29 13:21:25;;;;;;;;;;;19.40;99.90;;;;;;6220578;23;19904;-91
2023/03/29 13:24:09;;;;;;;;;;;19.50;99.90;;;;;;6217819;23;19904;-92
2023/03/29 13:27:08;;;;;;;;;;;19.80;99.90;;;;;;6241989;23;19911;-94
2023/03/29 13:29:51;;;;;;;;;;;19.50;99.90;;;;;;6183587;23;19904;-90
2023/03/29 13:32:36;;;;;;;;;;;19.50;99.90;;;;;;6218631;23;19915;-91
2023/03/29 13:35:11;;;;;;;;;;;19.70;99.90;;;;;;6215690;23;19911;-95
2023/03/29 13:37:50;;;;;;;;;;;19.60;99.90;;;;;;6221484;23;20034;-92
2023/03/29 13:40:28;;;;;;;;;;;19.70;99.90;;;;;;6223852;23;19908;-91
2023/03/29 13:42:56;;;;;;;;;;;19.80;99.90;;;;;;6220651;23;19908;-90
2023/03/29 13:45:24;;;;;;;;;;;19.80;99.90;;;;;;6223834;23;19904;-92
2023/03/29 13:48:00;;;;;;;;;;;19.70;99.90;;;;;;6222042;23;20007;-92
2023/03/29 13:50:36;;;;;;;;;;;20.10;99.90;;;;;;6219893;23;19914;-93
2023/03/29 13:53:19;;;;;;;;;;;19.90;99.90;;;;;;6222618;23;19904;-92
2023/03/29 13:55:49;;;;;;;;;;;20.00;99.90;;;;;;6221038;23;19920;-92
2023/03/29 13:58:34;;;;;;;;;;;20.00;99.90;;;;;;6219064;23;19957;-93
2023/03/29 14:01:06;;;;;;;;;;;20.00;99.90;;;;;;6221113;23;19911;-92
2023/03/29 14:03:37;;;;;;;;;;;20.00;99.90;;;;;;6220031;23;19948;-91
2023/03/29 14:06:05;;;;;;;;;;;20.10;99.90;;;;;;6248412;23;19911;-91
2023/03/29 14:08:37;;;;;;;;;;;20.00;99.90;;;;;;6220182;23;19907;-93
2023/03/29 14:11:03;;;;;;;;;;;20.00;99.90;;;;;;6224202;23;20435;-90
2023/03/29 14:13:30;;;;;;;;;;;20.10;99.90;;;;;;6222108;23;19955;-94
2023/03/29 14:16:01;;;;;;;;;;;20.20;99.90;;;;;;6221393;23;20368;-91
2023/03/29 14:18:30;;;;;;;;;;;20.30;99.90;;;;;;6221562;23;19914;-92
2023/03/29 14:20:58;;;;;;;;;;;20.10;99.90;;;;;;6224026;23;20360;-96
2023/03/29 14:23:25;;;;;;;;;;;20.00;99.90;;;;;;6219547;23;19908;-93
2023/03/29 14:25:51;;;;;;;;;;;19.90;99.90;;;;;;6224985;23;19911;-94
2023/03/29 14:28:25;;;;;;;;;;;19.80;99.90;;;;;;6212181;23;19904;-92
2023/03/29 14:30:51;;;;;;;;;;;19.80;99.90;;;;;;6212575;23;19923;-91
2023/03/29 14:33:26;;;;;;;;;;;19.90;99.90;;;;;;6213722;23;19904;-92
2023/03/29 14:35:53;;;;;;;;;;;20.00;99.90;;;;;;6215274;23;20360;-94
2023/03/29 14:38:19;;;;;;;;;;;20.00;99.90;;;;;;6213537;23;19912;-93
2023/03/29 14:40:45;;;;;;;;;;;20.00;99.90;;;;;;6218011;23;19908;-92
2023/03/29 14:43:13;;;;;;;;;;;20.10;99.90;;;;;;6214527;23;19928;-95
2023/03/29 14:45:39;;;;;;;;;;;20.10;99.90;;;;;;6211596;23;20221;-95
2023/03/29 14:48:05;;;;;;;;;;;20.20;99.90;;;;;;6212927;23;19935;-95